createdAt,value
2023-01-20T01:17:31.088Z,500.00
2023-01-20T01:18:31.099Z,508.00
2023-01-20T01:19:31.113Z,505.00
2023-01-20T01:20:31.180Z,504.00
2023-01-20T01:21:31.294Z,505.00
2023-01-20T01:22:31.389Z,506.00
2023-01-20T01:23:31.502Z,501.00
2023-01-20T01:24:31.618Z,505.00
2023-01-20T01:25:31.710Z,506.00
2023-01-20T01:26:31.814Z,510.00
2023-01-20T01:27:31.831Z,502.00
2023-01-20T01:28:31.859Z,503.00
2023-01-20T01:29:31.863Z,504.00
2023-01-20T01:30:31.923Z,507.00
2023-01-20T01:31:31.929Z,505.00
2023-01-20T01:32:31.936Z,503.00
2023-01-20T01:33:31.963Z,503.00
2023-01-20T01:34:31.960Z,507.00
2023-01-20T01:35:31.977Z,502.00
2023-01-20T01:36:31.963Z,505.00
2023-01-20T01:37:31.970Z,504.00
2023-01-20T01:38:32.041Z,506.00
2023-01-20T03:12:35.547Z,512.00
2023-01-20T03:13:35.659Z,509.00
2023-01-20T03:14:35.671Z,516.00
2023-01-20T03:15:35.787Z,510.00
2023-01-20T03:16:35.798Z,513.00
2023-01-20T03:17:35.853Z,512.00
2023-01-20T03:18:35.892Z,515.00
2023-01-20T03:19:35.956Z,509.00
2023-01-20T03:20:36.017Z,513.00
2023-01-20T03:21:36.074Z,515.00
2023-01-20T03:22:36.116Z,512.00
2023-01-20T03:23:36.174Z,510.00
2023-01-20T03:24:36.230Z,512.00
2023-01-20T03:25:36.304Z,511.00
2023-01-20T03:26:36.364Z,511.00
2023-01-20T03:27:36.422Z,510.00
2023-01-20T03:28:36.473Z,512.00
2023-01-20T03:29:36.533Z,511.00
2023-01-20T03:30:36.665Z,510.00
2023-01-20T03:31:36.728Z,509.00
2023-01-20T03:32:36.709Z,507.00
2023-01-20T03:33:36.787Z,510.00
2023-01-20T03:34:36.857Z,509.00
2023-01-20T03:35:36.895Z,502.00
2023-01-20T03:36:36.949Z,507.00
2023-01-20T03:37:37.026Z,510.00
2023-01-20T03:38:37.108Z,508.00
2023-01-20T03:39:37.148Z,510.00
2023-01-20T03:40:37.211Z,504.00
2023-01-20T03:41:37.277Z,508.00
2023-01-20T03:42:37.339Z,502.00
2023-01-20T03:43:37.413Z,507.00
2023-01-20T03:44:37.461Z,504.00
2023-01-20T03:45:37.564Z,510.00
2023-01-20T03:46:37.583Z,504.00
2023-01-20T03:47:37.661Z,509.00
2023-01-20T03:48:37.730Z,505.00
2023-01-20T03:49:37.768Z,506.00
2023-01-20T03:50:37.842Z,505.00
2023-01-20T03:51:37.908Z,506.00
2023-01-20T03:52:46.540Z,505.00
2023-01-20T03:53:38.968Z,505.00
2023-01-20T03:54:37.968Z,503.00
2023-01-20T03:55:37.988Z,504.00
2023-01-20T03:56:37.991Z,503.00
2023-01-20T03:57:37.996Z,506.00
2023-01-20T03:58:37.993Z,503.00
2023-01-20T03:59:37.992Z,504.00
2023-01-20T04:00:37.997Z,503.00
2023-01-20T04:01:38.107Z,506.00
2023-01-20T04:02:38.095Z,506.00
2023-01-20T04:03:38.178Z,503.00
2023-01-20T04:04:38.228Z,506.00
2023-01-20T04:05:38.280Z,505.00
2023-01-20T04:06:38.361Z,502.00
2023-01-20T04:07:38.441Z,502.00
2023-01-20T04:08:38.495Z,503.00
2023-01-20T04:09:38.562Z,501.00
2023-01-20T04:10:38.638Z,505.00
2023-01-20T05:58:45.579Z,505.00
2023-01-20T05:59:45.632Z,506.00
2023-01-20T06:00:45.693Z,506.00
2023-01-20T06:01:45.757Z,509.00
2023-01-20T06:02:45.837Z,501.00
2023-01-20T06:03:45.902Z,500.00
2023-01-20T06:04:45.921Z,504.00
2023-01-20T06:05:45.957Z,506.00
2023-01-20T06:06:46.010Z,503.00
2023-01-20T06:07:46.063Z,503.00
2023-01-20T06:08:46.111Z,501.00
2023-01-20T06:09:46.194Z,509.00
2023-01-20T06:10:46.231Z,502.00
2023-01-20T06:11:46.294Z,506.00
2023-01-20T06:12:46.351Z,505.00
2023-01-20T06:13:46.409Z,503.00
2023-01-20T06:14:46.460Z,507.00
2023-01-20T06:15:46.619Z,508.00
2023-01-20T06:16:46.598Z,506.00
2023-01-20T06:17:46.670Z,503.00
2023-01-20T06:18:46.729Z,502.00
2023-01-20T06:19:46.782Z,505.00
2023-01-20T06:20:46.858Z,504.00
2023-01-20T06:21:47.045Z,503.00
2023-01-20T06:22:47.006Z,503.00
2023-01-20T06:23:47.058Z,503.00
2023-01-20T06:24:47.178Z,518.00
2023-01-20T06:25:47.185Z,511.00
2023-01-20T06:26:47.235Z,521.00
2023-01-20T06:33:47.652Z,516.00
2023-01-20T06:35:47.773Z,518.00
2023-01-20T15:37:56.232Z,512.00
2023-01-20T15:40:55.541Z,507.00
2023-01-20T15:41:55.572Z,506.00
2023-01-20T15:42:55.602Z,508.00
2023-01-20T15:43:55.607Z,510.00
2023-01-20T15:44:55.702Z,512.00
2023-01-20T15:45:55.694Z,508.00
2023-01-20T15:46:57.511Z,506.00
2023-01-20T15:47:55.775Z,510.00
2023-01-20T15:48:55.805Z,508.00
2023-01-20T15:49:55.847Z,505.00
2023-01-20T15:50:55.926Z,509.00
2023-01-20T15:51:55.903Z,506.00
2023-01-20T15:52:55.936Z,506.00
2023-01-20T15:53:56.041Z,505.00
2023-01-20T15:54:56.064Z,502.00
2023-01-20T15:55:56.086Z,506.00
2023-01-20T15:56:56.093Z,505.00
2023-01-20T15:57:56.107Z,504.00
2023-01-20T15:58:56.129Z,505.00
2023-01-20T15:59:56.215Z,507.00
2023-01-20T16:00:56.320Z,504.00
2023-01-20T16:01:56.457Z,509.00
2023-01-20T16:02:56.561Z,506.00
2023-01-20T16:03:56.467Z,506.00
2023-01-20T16:04:56.487Z,505.00
2023-01-20T16:05:56.509Z,504.00
2023-01-20T16:06:56.601Z,506.00
2023-01-20T16:07:56.701Z,509.00
2023-01-20T16:08:56.711Z,508.00
2023-01-20T16:09:56.724Z,504.00
2023-01-20T16:10:56.731Z,505.00
2023-01-20T16:11:56.744Z,505.00
2023-01-20T16:12:56.757Z,505.00
2023-01-20T16:13:56.800Z,511.00
2023-01-20T16:14:56.895Z,510.00
2023-01-20T16:15:57.034Z,512.00
2023-01-20T16:16:57.043Z,509.00
2023-01-20T16:17:57.090Z,508.00
2023-01-20T16:18:57.157Z,509.00
2023-01-20T16:19:57.200Z,509.00
2023-01-20T16:20:57.240Z,506.00
2023-01-20T16:21:57.274Z,507.00
2023-01-20T16:22:57.285Z,511.00
2023-01-20T16:23:57.321Z,509.00
2023-01-20T16:24:57.373Z,508.00
2023-01-20T16:25:57.482Z,511.00
2023-01-20T16:26:57.536Z,510.00
2023-01-20T16:27:57.626Z,509.00
2023-01-20T16:28:57.728Z,510.00
2023-01-20T16:29:57.771Z,511.00
2023-01-20T16:30:57.894Z,511.00
2023-01-20T16:31:57.918Z,513.00
2023-01-20T16:32:57.967Z,513.00
2023-01-20T16:33:58.064Z,512.00
2023-01-20T16:34:58.117Z,511.00
2023-01-20T16:35:58.192Z,514.00
2023-01-20T16:36:58.273Z,510.00
2023-01-20T16:37:58.343Z,511.00
2023-01-20T16:38:58.403Z,511.00
2023-01-20T16:39:58.457Z,511.00
2023-01-20T16:40:58.504Z,512.00
2023-01-20T16:41:58.566Z,510.00
2023-01-20T16:42:58.651Z,509.00
2023-01-20T16:43:58.742Z,509.00
2023-01-20T16:44:58.806Z,512.00
2023-01-20T16:45:58.898Z,510.00
2023-01-20T16:46:58.936Z,509.00
2023-01-20T16:47:59.008Z,509.00
2023-01-20T16:48:59.058Z,512.00
2023-01-20T16:49:59.113Z,510.00
2023-01-20T16:50:59.199Z,510.00
2023-01-20T16:51:59.269Z,509.00
2023-01-20T16:52:59.340Z,511.00
2023-01-20T16:53:59.427Z,510.00
2023-01-20T16:54:59.480Z,509.00
2023-01-20T16:55:59.599Z,510.00
2023-01-20T16:56:59.645Z,510.00
2023-01-20T16:57:59.712Z,510.00
2023-01-20T16:58:59.775Z,511.00
2023-01-20T18:39:05.568Z,503.00
2023-01-20T18:40:05.641Z,502.00
2023-01-20T18:41:05.701Z,504.00
2023-01-20T18:42:05.762Z,504.00
2023-01-20T18:43:05.829Z,502.00
2023-01-20T18:44:05.890Z,505.00
2023-01-20T18:45:06.383Z,507.00
2023-01-20T18:46:06.045Z,503.00
2023-01-20T18:47:06.108Z,504.00
2023-01-20T18:48:06.163Z,503.00
2023-01-20T18:49:09.223Z,505.00
2023-01-20T18:50:06.238Z,508.00
2023-01-20T18:51:06.335Z,506.00
2023-01-20T18:52:06.256Z,501.00
2023-01-20T18:53:06.223Z,505.00
2023-01-20T18:54:06.255Z,503.00
2023-01-20T18:55:06.244Z,504.00
2023-01-20T18:56:06.235Z,503.00
2023-01-20T18:57:08.758Z,505.00
2023-01-20T18:58:06.250Z,505.00
2023-01-20T18:59:06.246Z,505.00
2023-01-20T19:00:06.244Z,506.00
2023-01-20T19:01:06.274Z,505.00
2023-01-20T19:02:06.283Z,505.00
2023-01-20T19:03:06.248Z,504.00
2023-01-20T19:04:06.244Z,505.00
2023-01-20T19:05:06.260Z,500.00
2023-01-20T19:06:06.267Z,504.00
2023-01-20T19:07:06.261Z,507.00
2023-01-20T19:08:06.254Z,501.00
2023-01-20T19:09:06.281Z,505.00
2023-01-20T19:10:06.278Z,508.00
2023-01-20T19:11:06.274Z,504.00
2023-01-20T19:12:06.274Z,505.00
2023-01-20T19:13:06.287Z,502.00
2023-01-20T19:14:06.293Z,506.00
2023-01-20T19:15:06.304Z,508.00
2023-01-20T19:16:06.327Z,509.00
2023-01-20T19:17:06.333Z,508.00
2023-01-20T19:18:07.223Z,509.00
2023-01-20T19:19:06.311Z,506.00
2023-01-20T19:20:06.306Z,507.00
2023-01-20T19:21:06.330Z,508.00
2023-01-20T19:22:06.319Z,507.00
2023-01-20T19:23:06.318Z,505.00
2023-01-20T19:24:06.319Z,506.00
2023-01-20T19:25:06.319Z,506.00
2023-01-20T19:26:06.342Z,502.00
2023-01-20T19:27:06.317Z,502.00
2023-01-20T19:28:06.324Z,505.00
2023-01-20T19:29:06.335Z,503.00
2023-01-20T19:30:06.326Z,507.00
2023-01-20T19:31:06.401Z,502.00
2023-01-20T19:32:06.325Z,504.00
2023-01-20T19:33:06.331Z,505.00
2023-01-20T19:34:06.337Z,504.00
2023-01-20T19:35:06.385Z,503.00
2023-01-20T19:36:06.466Z,503.00
2023-01-20T19:37:06.510Z,506.00
2023-01-20T19:38:06.574Z,503.00
2023-01-20T19:39:06.640Z,504.00
2023-01-20T19:40:06.708Z,502.00
2023-01-20T19:41:06.781Z,503.00
2023-01-20T19:42:06.820Z,504.00
2023-01-20T19:43:06.917Z,506.00
2023-01-20T19:44:06.929Z,503.00
2023-01-20T19:45:06.986Z,503.00
2023-01-20T19:46:07.072Z,508.00
2023-01-20T19:47:07.120Z,504.00
2023-01-20T19:48:07.190Z,506.00
2023-01-20T19:49:07.257Z,505.00
2023-01-20T19:50:07.316Z,504.00
2023-01-20T20:13:08.920Z,505.00
2023-01-20T20:14:08.996Z,506.00
2023-01-20T20:15:09.053Z,506.00
2023-01-20T20:16:09.180Z,507.00
2023-01-20T20:17:09.200Z,505.00
2023-01-20T20:50:11.317Z,502.00
2023-01-20T20:51:11.426Z,503.00
2023-01-20T20:52:11.438Z,503.00
2023-01-20T20:53:11.527Z,508.00
2023-01-20T20:54:11.589Z,503.00
2023-01-20T20:55:12.401Z,505.00
2023-01-20T20:56:11.721Z,506.00
2023-01-20T20:57:11.760Z,504.00
2023-01-20T20:58:12.796Z,502.00
2023-01-20T20:59:11.897Z,506.00
2023-01-20T21:00:11.963Z,503.00
2023-01-20T21:01:12.028Z,510.00
2023-01-20T21:02:12.108Z,504.00
2023-01-20T21:03:12.173Z,506.00
2023-01-20T21:04:12.304Z,506.00
2023-01-20T21:05:12.307Z,505.00
2023-01-20T21:06:12.380Z,505.00
2023-01-20T21:07:12.465Z,503.00
2023-01-20T21:08:12.528Z,505.00
2023-01-20T21:09:12.596Z,505.00
2023-01-20T21:10:12.670Z,503.00
2023-01-20T21:11:12.738Z,505.00
2023-01-20T21:12:12.794Z,509.00
2023-01-20T21:13:12.841Z,505.00
2023-01-20T21:14:12.896Z,508.00
2023-01-20T21:15:12.966Z,504.00
2023-01-20T21:16:13.083Z,511.00
2023-01-20T21:17:13.114Z,514.00
2023-01-20T21:18:13.802Z,506.00
2023-01-20T21:19:13.245Z,503.00
2023-01-20T21:20:13.392Z,503.00
2023-01-20T21:21:13.427Z,508.00
2023-01-20T21:22:13.490Z,514.00
2023-01-20T21:23:13.563Z,505.00
2023-01-20T21:24:13.634Z,504.00
2023-01-20T21:25:13.692Z,522.00
2023-01-20T21:26:13.765Z,504.00
2023-01-20T21:27:13.849Z,505.00
2023-01-20T21:28:13.917Z,506.00
2023-01-20T21:29:13.991Z,518.00
2023-01-20T21:30:14.093Z,517.00
2023-01-20T21:31:14.157Z,516.00
2023-01-20T21:32:14.188Z,521.00
2023-01-20T21:33:14.256Z,521.00
2023-01-20T21:34:14.321Z,508.00
2023-01-20T21:35:14.390Z,521.00
2023-01-20T21:36:14.436Z,517.00
2023-01-20T21:37:14.504Z,515.00
2023-01-20T21:38:14.600Z,519.00
2023-01-20T21:39:14.659Z,514.00
2023-01-20T21:40:15.076Z,522.00
2023-01-20T21:41:14.769Z,524.00
2023-01-20T21:42:14.916Z,515.00
2023-01-20T21:43:14.912Z,510.00
2023-01-20T21:44:14.993Z,528.00
2023-01-20T21:45:15.054Z,519.00
2023-01-20T21:46:15.100Z,525.00
2023-01-20T21:47:15.147Z,527.00
2023-01-20T21:48:15.209Z,530.00
2023-01-20T21:49:15.257Z,526.00
2023-01-20T21:50:15.546Z,513.00
2023-01-20T21:51:15.396Z,531.00
2023-01-20T21:52:15.472Z,535.00
2023-01-20T21:53:15.518Z,526.00
2023-01-20T21:54:15.591Z,528.00
2023-01-20T21:55:15.650Z,532.00
2023-01-20T21:56:15.706Z,532.00
2023-01-20T21:57:15.752Z,526.00
2023-01-20T21:58:16.813Z,535.00
2023-01-20T21:59:15.916Z,536.00
2023-01-20T22:00:16.202Z,535.00
2023-01-20T22:01:16.002Z,539.00
2023-01-20T22:02:16.115Z,527.00
2023-01-20T22:03:16.126Z,532.00
2023-01-20T22:04:16.203Z,533.00
2023-01-20T22:05:16.261Z,525.00
2023-01-20T22:06:16.326Z,534.00
2023-01-20T22:07:16.403Z,531.00
2023-01-20T22:08:16.440Z,535.00
2023-01-20T22:09:16.531Z,534.00
2023-01-20T22:10:16.953Z,527.00
2023-01-20T22:11:16.665Z,530.00
2023-01-20T22:12:16.743Z,529.00
